ENCN/KRS METAR and TAF weather

Enter ICAO airport designator
Station Type Date Time Source
ENCN METAR 2021/03/08 03:20 UTC NOAA

ENCN 080320Z AUTO 05005KT 9999 NCD M06/M10 Q1023


Station Type Date Time Source
ENCN Decoded METAR 2021/03/08 03:20 UTC NOAA

Kristiansand / Kjevik, Norway (ENCN) 58-12N 008-05E 17M
Mar 07, 2021 - 10:20 PM EST / 2021.03.08 0320 UTC
Wind: from the NE (050 degrees) at 6 MPH (5 KT):0
Visibility: greater than 7 mile(s):0
Temperature: 21 F (-6 C)
Windchill: 14 F (-10 C):1
Dew Point: 14 F (-10 C)
Relative Humidity: 73%
Pressure (altimeter): 30.21 in. Hg (1023 hPa)
ob: ENCN 080320Z AUTO 05005KT 9999 NCD M06/M10 Q1023
cycle: 3

Station Type Date Time Source
ENCN TAF 2016/05/06 12:39 UTC NOAA

TAF TAF ENCN 061100Z 0612/0712 14008KT 9999 FEW040

Example: see airport list